Terminal Aerodrome Forecast
Issued by NWS

Current Version | Previous Version | Graphics & Text | Print | Product List | Glossary On
Versions: 1 2 3 4 5 6 7 8 9 10 11 12 13 14 15 16 17 18 19 20 21
000
FTUS41 KPBZ 050520
TAFHLG
TAF
KHLG 050520Z 0506/0606 VRB03KT P6SM BKN250
      TEMPO 0509/0513 3SM BR=

USA.gov is the U.S. government's official web portal to all federal, state and local government web resources and services.